sensor_id;sensor_type;location;lat;lon;timestamp;P1;durP1;ratioP1;P2;durP2;ratioP2
54923;SDS011;40825;52.270;20.984;2023-05-09T00:01:47;11.80;;;5.90;;
54923;SDS011;40825;52.270;20.984;2023-05-09T00:04:12;11.50;;;5.80;;
54923;SDS011;40825;52.270;20.984;2023-05-09T00:06:40;11.50;;;5.80;;
54923;SDS011;40825;52.270;20.984;2023-05-09T00:09:05;14.90;;;6.30;;
54923;SDS011;40825;52.270;20.984;2023-05-09T00:11:31;12.40;;;5.60;;
54923;SDS011;40825;52.270;20.984;2023-05-09T00:13:56;16.20;;;6.40;;
54923;SDS011;40825;52.270;20.984;2023-05-09T00:16:22;14.40;;;6.50;;
54923;SDS011;40825;52.270;20.984;2023-05-09T00:18:48;12.20;;;6.30;;
54923;SDS011;40825;52.270;20.984;2023-05-09T00:21:13;15.50;;;6.60;;
54923;SDS011;40825;52.270;20.984;2023-05-09T00:23:39;13.40;;;7.50;;
54923;SDS011;40825;52.270;20.984;2023-05-09T00:26:05;12.20;;;6.70;;
54923;SDS011;40825;52.270;20.984;2023-05-09T00:28:30;15.10;;;7.50;;
54923;SDS011;40825;52.270;20.984;2023-05-09T00:30:56;15.70;;;7.10;;
54923;SDS011;40825;52.270;20.984;2023-05-09T00:33:23;20.40;;;9.70;;
54923;SDS011;40825;52.270;20.984;2023-05-09T00:35:53;17.40;;;9.10;;
54923;SDS011;40825;52.270;20.984;2023-05-09T00:38:22;16.20;;;8.00;;
54923;SDS011;40825;52.270;20.984;2023-05-09T00:40:48;14.50;;;8.00;;
54923;SDS011;40825;52.270;20.984;2023-05-09T00:43:13;15.60;;;7.80;;
54923;SDS011;40825;52.270;20.984;2023-05-09T00:45:41;16.40;;;7.90;;
54923;SDS011;40825;52.270;20.984;2023-05-09T00:48:07;20.80;;;9.00;;
54923;SDS011;40825;52.270;20.984;2023-05-09T00:50:33;15.70;;;8.50;;
54923;SDS011;40825;52.270;20.984;2023-05-09T00:52:58;20.80;;;8.50;;
54923;SDS011;40825;52.270;20.984;2023-05-09T00:55:24;16.40;;;8.40;;
54923;SDS011;40825;52.270;20.984;2023-05-09T00:57:51;19.00;;;9.50;;
54923;SDS011;40825;52.270;20.984;2023-05-09T01:00:17;16.20;;;7.50;;
54923;SDS011;40825;52.270;20.984;2023-05-09T01:02:43;14.70;;;8.60;;
54923;SDS011;40825;52.270;20.984;2023-05-09T01:05:12;17.10;;;8.60;;
54923;SDS011;40825;52.270;20.984;2023-05-09T01:13:19;17.20;;;8.60;;
54923;SDS011;40825;52.270;20.984;2023-05-09T01:19:16;14.00;;;7.70;;
54923;SDS011;40825;52.270;20.984;2023-05-09T01:21:47;17.60;;;8.50;;
54923;SDS011;40825;52.270;20.984;2023-05-09T01:24:20;20.00;;;9.10;;
54923;SDS011;40825;52.270;20.984;2023-05-09T01:31:52;17.50;;;8.40;;
54923;SDS011;40825;52.270;20.984;2023-05-09T01:34:21;21.90;;;9.60;;
54923;SDS011;40825;52.270;20.984;2023-05-09T01:36:50;17.30;;;9.50;;
54923;SDS011;40825;52.270;20.984;2023-05-09T01:39:17;21.40;;;9.30;;
54923;SDS011;40825;52.270;20.984;2023-05-09T01:41:45;19.60;;;9.30;;
54923;SDS011;40825;52.270;20.984;2023-05-09T01:44:11;18.00;;;9.00;;
54923;SDS011;40825;52.270;20.984;2023-05-09T01:46:39;19.00;;;8.90;;
54923;SDS011;40825;52.270;20.984;2023-05-09T01:49:07;20.30;;;10.40;;
54923;SDS011;40825;52.270;20.984;2023-05-09T01:51:33;16.80;;;9.20;;
54923;SDS011;40825;52.270;20.984;2023-05-09T01:54:02;18.60;;;9.50;;
54923;SDS011;40825;52.270;20.984;2023-05-09T01:56:29;19.60;;;9.10;;
54923;SDS011;40825;52.270;20.984;2023-05-09T01:58:55;19.20;;;9.70;;
54923;SDS011;40825;52.270;20.984;2023-05-09T02:01:23;19.50;;;9.30;;
54923;SDS011;40825;52.270;20.984;2023-05-09T02:03:49;19.90;;;9.70;;
54923;SDS011;40825;52.270;20.984;2023-05-09T02:06:19;21.00;;;11.00;;
54923;SDS011;40825;52.270;20.984;2023-05-09T02:08:47;20.10;;;10.60;;
54923;SDS011;40825;52.270;20.984;2023-05-09T02:11:14;21.90;;;11.30;;
54923;SDS011;40825;52.270;20.984;2023-05-09T02:13:40;19.80;;;10.90;;
54923;SDS011;40825;52.270;20.984;2023-05-09T02:16:06;26.60;;;13.00;;
54923;SDS011;40825;52.270;20.984;2023-05-09T02:18:32;23.20;;;11.60;;
54923;SDS011;40825;52.270;20.984;2023-05-09T02:21:00;23.50;;;11.70;;
54923;SDS011;40825;52.270;20.984;2023-05-09T02:23:26;26.80;;;12.50;;
54923;SDS011;40825;52.270;20.984;2023-05-09T02:25:51;28.80;;;12.50;;
54923;SDS011;40825;52.270;20.984;2023-05-09T02:28:18;23.00;;;12.30;;
54923;SDS011;40825;52.270;20.984;2023-05-09T02:30:46;23.80;;;13.20;;
54923;SDS011;40825;52.270;20.984;2023-05-09T02:33:14;24.70;;;12.20;;
54923;SDS011;40825;52.270;20.984;2023-05-09T02:35:41;25.50;;;12.50;;
54923;SDS011;40825;52.270;20.984;2023-05-09T02:38:09;26.90;;;12.80;;
54923;SDS011;40825;52.270;20.984;2023-05-09T02:40:35;24.30;;;12.60;;
54923;SDS011;40825;52.270;20.984;2023-05-09T02:43:01;24.00;;;12.60;;
54923;SDS011;40825;52.270;20.984;2023-05-09T02:45:27;24.40;;;12.60;;
54923;SDS011;40825;52.270;20.984;2023-05-09T02:47:52;26.10;;;13.50;;
54923;SDS011;40825;52.270;20.984;2023-05-09T02:50:18;24.90;;;13.30;;
54923;SDS011;40825;52.270;20.984;2023-05-09T02:52:43;24.80;;;14.50;;
54923;SDS011;40825;52.270;20.984;2023-05-09T02:55:10;26.40;;;13.20;;
54923;SDS011;40825;52.270;20.984;2023-05-09T02:57:36;25.70;;;12.80;;
54923;SDS011;40825;52.270;20.984;2023-05-09T03:00:02;28.20;;;14.70;;
54923;SDS011;40825;52.270;20.984;2023-05-09T03:02:33;26.50;;;14.10;;
54923;SDS011;40825;52.270;20.984;2023-05-09T03:04:58;24.50;;;13.10;;
54923;SDS011;40825;52.270;20.984;2023-05-09T03:07:24;26.20;;;12.00;;
54923;SDS011;40825;52.270;20.984;2023-05-09T03:09:49;25.70;;;12.90;;
54923;SDS011;40825;52.270;20.984;2023-05-09T03:12:15;27.70;;;12.20;;
54923;SDS011;40825;52.270;20.984;2023-05-09T03:14:40;21.50;;;11.80;;
54923;SDS011;40825;52.270;20.984;2023-05-09T03:17:06;24.10;;;12.70;;
54923;SDS011;40825;52.270;20.984;2023-05-09T03:19:32;22.60;;;12.80;;
54923;SDS011;40825;52.270;20.984;2023-05-09T03:21:58;21.70;;;12.50;;
54923;SDS011;40825;52.270;20.984;2023-05-09T03:24:24;24.30;;;12.40;;
54923;SDS011;40825;52.270;20.984;2023-05-09T03:29:17;22.70;;;12.30;;
54923;SDS011;40825;52.270;20.984;2023-05-09T03:31:43;23.30;;;11.80;;
54923;SDS011;40825;52.270;20.984;2023-05-09T03:34:08;25.50;;;13.80;;
54923;SDS011;40825;52.270;20.984;2023-05-09T03:36:42;22.60;;;12.30;;
54923;SDS011;40825;52.270;20.984;2023-05-09T03:39:08;22.50;;;12.50;;
54923;SDS011;40825;52.270;20.984;2023-05-09T03:41:34;21.50;;;11.80;;
54923;SDS011;40825;52.270;20.984;2023-05-09T03:44:00;25.00;;;12.70;;
54923;SDS011;40825;52.270;20.984;2023-05-09T03:46:27;23.10;;;12.30;;
54923;SDS011;40825;52.270;20.984;2023-05-09T03:48:52;26.20;;;12.90;;
54923;SDS011;40825;52.270;20.984;2023-05-09T03:51:18;24.90;;;12.30;;
54923;SDS011;40825;52.270;20.984;2023-05-09T03:53:45;22.80;;;12.50;;
54923;SDS011;40825;52.270;20.984;2023-05-09T03:56:11;26.20;;;13.10;;
54923;SDS011;40825;52.270;20.984;2023-05-09T03:58:37;25.50;;;13.10;;
54923;SDS011;40825;52.270;20.984;2023-05-09T04:01:03;25.20;;;12.80;;
54923;SDS011;40825;52.270;20.984;2023-05-09T04:03:28;22.60;;;12.80;;
54923;SDS011;40825;52.270;20.984;2023-05-09T04:05:54;25.50;;;12.50;;
54923;SDS011;40825;52.270;20.984;2023-05-09T04:08:20;24.00;;;13.10;;
54923;SDS011;40825;52.270;20.984;2023-05-09T04:10:45;26.50;;;13.40;;
54923;SDS011;40825;52.270;20.984;2023-05-09T04:13:11;26.10;;;13.60;;
54923;SDS011;40825;52.270;20.984;2023-05-09T04:15:36;24.40;;;13.70;;
54923;SDS011;40825;52.270;20.984;2023-05-09T04:18:02;24.80;;;13.50;;
54923;SDS011;40825;52.270;20.984;2023-05-09T04:20:27;28.00;;;14.60;;
54923;SDS011;40825;52.270;20.984;2023-05-09T04:22:53;25.10;;;14.30;;
54923;SDS011;40825;52.270;20.984;2023-05-09T04:25:18;22.90;;;13.60;;
54923;SDS011;40825;52.270;20.984;2023-05-09T04:27:44;26.30;;;14.20;;
54923;SDS011;40825;52.270;20.984;2023-05-09T04:30:10;26.50;;;16.90;;
54923;SDS011;40825;52.270;20.984;2023-05-09T04:32:36;28.50;;;16.00;;
54923;SDS011;40825;52.270;20.984;2023-05-09T04:35:03;25.70;;;16.40;;
54923;SDS011;40825;52.270;20.984;2023-05-09T04:37:30;27.20;;;15.80;;
54923;SDS011;40825;52.270;20.984;2023-05-09T04:39:57;23.60;;;16.00;;
54923;SDS011;40825;52.270;20.984;2023-05-09T04:42:22;24.50;;;15.10;;
54923;SDS011;40825;52.270;20.984;2023-05-09T04:44:48;23.50;;;14.40;;
54923;SDS011;40825;52.270;20.984;2023-05-09T04:47:13;23.90;;;14.70;;
54923;SDS011;40825;52.270;20.984;2023-05-09T04:49:39;21.60;;;13.50;;
54923;SDS011;40825;52.270;20.984;2023-05-09T04:52:05;22.30;;;12.20;;
54923;SDS011;40825;52.270;20.984;2023-05-09T04:54:31;17.10;;;10.20;;
54923;SDS011;40825;52.270;20.984;2023-05-09T04:56:56;13.10;;;8.00;;
54923;SDS011;40825;52.270;20.984;2023-05-09T04:59:22;14.70;;;7.80;;
54923;SDS011;40825;52.270;20.984;2023-05-09T05:01:47;15.60;;;7.60;;
54923;SDS011;40825;52.270;20.984;2023-05-09T05:04:13;13.40;;;7.30;;
54923;SDS011;40825;52.270;20.984;2023-05-09T05:06:38;11.90;;;6.20;;
54923;SDS011;40825;52.270;20.984;2023-05-09T05:09:04;12.40;;;6.50;;
54923;SDS011;40825;52.270;20.984;2023-05-09T05:11:30;12.10;;;5.90;;
54923;SDS011;40825;52.270;20.984;2023-05-09T05:13:55;12.50;;;6.40;;
54923;SDS011;40825;52.270;20.984;2023-05-09T05:16:21;13.70;;;5.70;;
54923;SDS011;40825;52.270;20.984;2023-05-09T05:18:46;11.30;;;6.00;;
54923;SDS011;40825;52.270;20.984;2023-05-09T05:21:12;13.40;;;5.90;;
54923;SDS011;40825;52.270;20.984;2023-05-09T05:23:37;12.80;;;6.00;;
54923;SDS011;40825;52.270;20.984;2023-05-09T05:26:03;12.50;;;5.40;;
54923;SDS011;40825;52.270;20.984;2023-05-09T05:28:29;12.20;;;5.60;;
54923;SDS011;40825;52.270;20.984;2023-05-09T05:30:54;12.00;;;6.10;;
54923;SDS011;40825;52.270;20.984;2023-05-09T05:33:20;13.90;;;6.30;;
54923;SDS011;40825;52.270;20.984;2023-05-09T05:35:46;10.40;;;5.60;;
54923;SDS011;40825;52.270;20.984;2023-05-09T05:38:11;11.30;;;6.10;;
54923;SDS011;40825;52.270;20.984;2023-05-09T05:40:37;12.90;;;6.10;;
54923;SDS011;40825;52.270;20.984;2023-05-09T05:43:02;11.60;;;6.00;;
54923;SDS011;40825;52.270;20.984;2023-05-09T05:45:28;11.80;;;6.50;;
54923;SDS011;40825;52.270;20.984;2023-05-09T05:47:54;12.40;;;5.50;;
54923;SDS011;40825;52.270;20.984;2023-05-09T05:50:20;12.00;;;5.90;;
54923;SDS011;40825;52.270;20.984;2023-05-09T05:52:45;16.90;;;6.10;;
54923;SDS011;40825;52.270;20.984;2023-05-09T05:55:11;9.60;;;5.20;;
54923;SDS011;40825;52.270;20.984;2023-05-09T05:57:37;12.00;;;5.30;;
54923;SDS011;40825;52.270;20.984;2023-05-09T06:00:03;11.50;;;6.00;;
54923;SDS011;40825;52.270;20.984;2023-05-09T06:02:34;12.80;;;5.70;;
54923;SDS011;40825;52.270;20.984;2023-05-09T06:05:00;10.50;;;5.20;;
54923;SDS011;40825;52.270;20.984;2023-05-09T06:07:25;10.40;;;5.40;;
54923;SDS011;40825;52.270;20.984;2023-05-09T06:09:51;13.30;;;5.80;;
54923;SDS011;40825;52.270;20.984;2023-05-09T06:12:16;12.10;;;6.30;;
54923;SDS011;40825;52.270;20.984;2023-05-09T06:14:42;10.30;;;5.40;;
54923;SDS011;40825;52.270;20.984;2023-05-09T06:17:07;12.00;;;5.50;;
54923;SDS011;40825;52.270;20.984;2023-05-09T06:19:33;10.60;;;5.40;;
54923;SDS011;40825;52.270;20.984;2023-05-09T06:21:59;10.80;;;5.30;;
54923;SDS011;40825;52.270;20.984;2023-05-09T06:24:24;12.60;;;5.90;;
54923;SDS011;40825;52.270;20.984;2023-05-09T06:26:50;11.50;;;5.50;;
54923;SDS011;40825;52.270;20.984;2023-05-09T06:29:15;11.20;;;6.30;;
54923;SDS011;40825;52.270;20.984;2023-05-09T06:31:42;13.50;;;5.80;;
54923;SDS011;40825;52.270;20.984;2023-05-09T06:34:08;11.30;;;4.60;;
54923;SDS011;40825;52.270;20.984;2023-05-09T06:36:33;12.10;;;4.70;;
54923;SDS011;40825;52.270;20.984;2023-05-09T06:38:59;10.70;;;5.30;;
54923;SDS011;40825;52.270;20.984;2023-05-09T06:41:25;9.20;;;4.40;;
54923;SDS011;40825;52.270;20.984;2023-05-09T06:43:50;9.20;;;4.50;;
54923;SDS011;40825;52.270;20.984;2023-05-09T06:46:17;9.40;;;4.50;;
54923;SDS011;40825;52.270;20.984;2023-05-09T06:48:43;9.30;;;4.00;;
54923;SDS011;40825;52.270;20.984;2023-05-09T06:51:08;10.10;;;4.40;;
54923;SDS011;40825;52.270;20.984;2023-05-09T06:53:35;9.40;;;4.00;;
54923;SDS011;40825;52.270;20.984;2023-05-09T06:56:01;8.20;;;3.80;;
54923;SDS011;40825;52.270;20.984;2023-05-09T06:58:27;10.70;;;3.80;;
54923;SDS011;40825;52.270;20.984;2023-05-09T07:00:52;7.90;;;4.10;;
54923;SDS011;40825;52.270;20.984;2023-05-09T07:03:18;8.20;;;3.50;;
54923;SDS011;40825;52.270;20.984;2023-05-09T07:05:44;6.90;;;2.50;;
54923;SDS011;40825;52.270;20.984;2023-05-09T07:08:09;8.90;;;3.80;;
54923;SDS011;40825;52.270;20.984;2023-05-09T07:10:35;6.70;;;2.90;;
54923;SDS011;40825;52.270;20.984;2023-05-09T07:13:00;8.40;;;3.40;;
54923;SDS011;40825;52.270;20.984;2023-05-09T07:15:26;6.60;;;2.50;;
54923;SDS011;40825;52.270;20.984;2023-05-09T07:17:51;5.50;;;2.30;;
54923;SDS011;40825;52.270;20.984;2023-05-09T07:20:17;6.70;;;3.40;;
54923;SDS011;40825;52.270;20.984;2023-05-09T07:22:42;5.60;;;2.00;;
54923;SDS011;40825;52.270;20.984;2023-05-09T07:25:08;4.60;;;2.20;;
54923;SDS011;40825;52.270;20.984;2023-05-09T07:27:34;3.50;;;1.30;;
54923;SDS011;40825;52.270;20.984;2023-05-09T07:30:02;6.10;;;1.50;;
54923;SDS011;40825;52.270;20.984;2023-05-09T07:32:28;5.10;;;1.50;;
54923;SDS011;40825;52.270;20.984;2023-05-09T07:34:54;5.90;;;1.70;;
54923;SDS011;40825;52.270;20.984;2023-05-09T07:37:19;4.20;;;1.50;;
54923;SDS011;40825;52.270;20.984;2023-05-09T07:39:45;5.00;;;1.90;;
54923;SDS011;40825;52.270;20.984;2023-05-09T07:42:11;4.50;;;1.40;;
54923;SDS011;40825;52.270;20.984;2023-05-09T07:44:37;5.70;;;1.60;;
54923;SDS011;40825;52.270;20.984;2023-05-09T07:47:03;2.30;;;1.30;;
54923;SDS011;40825;52.270;20.984;2023-05-09T07:49:32;2.50;;;1.00;;
54923;SDS011;40825;52.270;20.984;2023-05-09T07:51:58;3.50;;;1.20;;
54923;SDS011;40825;52.270;20.984;2023-05-09T07:54:23;3.70;;;1.30;;
54923;SDS011;40825;52.270;20.984;2023-05-09T07:56:49;4.60;;;1.90;;
54923;SDS011;40825;52.270;20.984;2023-05-09T07:59:14;3.20;;;1.00;;
54923;SDS011;40825;52.270;20.984;2023-05-09T08:01:41;4.10;;;1.20;;
54923;SDS011;40825;52.270;20.984;2023-05-09T08:04:06;3.30;;;1.10;;
54923;SDS011;40825;52.270;20.984;2023-05-09T08:06:33;2.60;;;1.00;;
54923;SDS011;40825;52.270;20.984;2023-05-09T08:08:59;3.30;;;1.40;;
54923;SDS011;40825;52.270;20.984;2023-05-09T08:11:24;4.90;;;1.60;;
54923;SDS011;40825;52.270;20.984;2023-05-09T08:13:50;4.00;;;1.20;;
54923;SDS011;40825;52.270;20.984;2023-05-09T08:16:16;4.10;;;1.40;;
54923;SDS011;40825;52.270;20.984;2023-05-09T08:18:42;5.30;;;1.20;;
54923;SDS011;40825;52.270;20.984;2023-05-09T08:21:08;4.30;;;1.10;;
54923;SDS011;40825;52.270;20.984;2023-05-09T08:23:33;5.40;;;1.80;;
54923;SDS011;40825;52.270;20.984;2023-05-09T08:25:59;4.10;;;1.50;;
54923;SDS011;40825;52.270;20.984;2023-05-09T08:28:25;3.30;;;1.40;;
54923;SDS011;40825;52.270;20.984;2023-05-09T08:30:55;4.10;;;1.50;;
54923;SDS011;40825;52.270;20.984;2023-05-09T08:33:21;4.00;;;1.30;;
54923;SDS011;40825;52.270;20.984;2023-05-09T08:35:51;3.70;;;1.30;;
54923;SDS011;40825;52.270;20.984;2023-05-09T08:38:17;4.30;;;1.20;;
54923;SDS011;40825;52.270;20.984;2023-05-09T08:40:43;4.70;;;1.50;;
54923;SDS011;40825;52.270;20.984;2023-05-09T08:43:09;3.60;;;1.70;;
54923;SDS011;40825;52.270;20.984;2023-05-09T08:45:41;5.20;;;2.10;;
54923;SDS011;40825;52.270;20.984;2023-05-09T08:48:14;3.50;;;1.40;;
54923;SDS011;40825;52.270;20.984;2023-05-09T08:50:41;4.40;;;1.30;;
54923;SDS011;40825;52.270;20.984;2023-05-09T08:53:08;4.10;;;2.00;;
54923;SDS011;40825;52.270;20.984;2023-05-09T08:55:33;4.20;;;1.20;;
54923;SDS011;40825;52.270;20.984;2023-05-09T08:57:59;4.20;;;1.30;;
54923;SDS011;40825;52.270;20.984;2023-05-09T09:00:25;4.20;;;1.50;;
54923;SDS011;40825;52.270;20.984;2023-05-09T09:02:51;3.90;;;1.50;;
54923;SDS011;40825;52.270;20.984;2023-05-09T09:05:19;4.10;;;1.70;;
54923;SDS011;40825;52.270;20.984;2023-05-09T09:07:47;4.00;;;1.50;;
54923;SDS011;40825;52.270;20.984;2023-05-09T09:10:13;5.30;;;1.30;;
54923;SDS011;40825;52.270;20.984;2023-05-09T09:12:39;4.90;;;1.70;;
54923;SDS011;40825;52.270;20.984;2023-05-09T09:15:06;3.50;;;1.20;;
54923;SDS011;40825;52.270;20.984;2023-05-09T09:17:39;3.30;;;1.50;;
54923;SDS011;40825;52.270;20.984;2023-05-09T09:20:07;3.70;;;1.30;;
54923;SDS011;40825;52.270;20.984;2023-05-09T09:22:35;3.60;;;1.60;;
54923;SDS011;40825;52.270;20.984;2023-05-09T09:25:05;3.50;;;1.40;;
54923;SDS011;40825;52.270;20.984;2023-05-09T09:27:31;4.20;;;2.10;;
54923;SDS011;40825;52.270;20.984;2023-05-09T09:30:14;4.10;;;1.30;;
54923;SDS011;40825;52.270;20.984;2023-05-09T09:32:41;3.60;;;1.20;;
54923;SDS011;40825;52.270;20.984;2023-05-09T09:35:09;2.70;;;1.30;;
54923;SDS011;40825;52.270;20.984;2023-05-09T09:37:36;3.50;;;1.20;;
54923;SDS011;40825;52.270;20.984;2023-05-09T09:40:08;3.40;;;1.50;;
54923;SDS011;40825;52.270;20.984;2023-05-09T09:42:42;3.60;;;1.50;;
54923;SDS011;40825;52.270;20.984;2023-05-09T09:45:14;2.70;;;1.10;;
54923;SDS011;40825;52.270;20.984;2023-05-09T09:47:44;3.70;;;1.40;;
54923;SDS011;40825;52.270;20.984;2023-05-09T09:50:12;3.50;;;1.30;;
54923;SDS011;40825;52.270;20.984;2023-05-09T09:52:49;3.00;;;1.20;;
54923;SDS011;40825;52.270;20.984;2023-05-09T09:55:16;3.40;;;1.30;;
54923;SDS011;40825;52.270;20.984;2023-05-09T09:57:43;3.60;;;1.40;;
54923;SDS011;40825;52.270;20.984;2023-05-09T10:00:17;4.50;;;1.30;;
54923;SDS011;40825;52.270;20.984;2023-05-09T10:02:51;4.20;;;1.30;;
54923;SDS011;40825;52.270;20.984;2023-05-09T10:05:20;2.30;;;1.10;;
54923;SDS011;40825;52.270;20.984;2023-05-09T10:10:19;3.70;;;1.20;;
54923;SDS011;40825;52.270;20.984;2023-05-09T10:12:45;3.40;;;1.10;;
54923;SDS011;40825;52.270;20.984;2023-05-09T10:15:11;5.10;;;1.70;;
54923;SDS011;40825;52.270;20.984;2023-05-09T10:17:42;4.10;;;1.90;;
54923;SDS011;40825;52.270;20.984;2023-05-09T10:20:08;3.60;;;1.40;;
54923;SDS011;40825;52.270;20.984;2023-05-09T10:22:37;2.60;;;1.20;;
54923;SDS011;40825;52.270;20.984;2023-05-09T10:25:04;3.20;;;1.30;;
54923;SDS011;40825;52.270;20.984;2023-05-09T10:27:37;3.60;;;1.50;;
54923;SDS011;40825;52.270;20.984;2023-05-09T10:30:06;2.90;;;1.30;;
54923;SDS011;40825;52.270;20.984;2023-05-09T10:32:42;3.60;;;1.20;;
54923;SDS011;40825;52.270;20.984;2023-05-09T10:35:18;4.40;;;1.30;;
54923;SDS011;40825;52.270;20.984;2023-05-09T10:37:50;5.20;;;1.30;;
54923;SDS011;40825;52.270;20.984;2023-05-09T10:40:20;3.60;;;1.40;;
54923;SDS011;40825;52.270;20.984;2023-05-09T10:42:45;3.30;;;1.90;;
54923;SDS011;40825;52.270;20.984;2023-05-09T10:45:11;3.10;;;1.00;;
54923;SDS011;40825;52.270;20.984;2023-05-09T10:47:38;3.60;;;1.80;;
54923;SDS011;40825;52.270;20.984;2023-05-09T10:50:06;4.30;;;1.20;;
54923;SDS011;40825;52.270;20.984;2023-05-09T10:52:33;5.10;;;1.10;;
54923;SDS011;40825;52.270;20.984;2023-05-09T10:54:59;4.60;;;1.30;;
54923;SDS011;40825;52.270;20.984;2023-05-09T10:57:29;4.00;;;1.50;;
54923;SDS011;40825;52.270;20.984;2023-05-09T10:59:56;3.10;;;1.10;;
54923;SDS011;40825;52.270;20.984;2023-05-09T11:02:23;3.30;;;1.20;;
54923;SDS011;40825;52.270;20.984;2023-05-09T11:05:14;3.80;;;1.50;;
54923;SDS011;40825;52.270;20.984;2023-05-09T11:07:41;2.30;;;0.90;;
54923;SDS011;40825;52.270;20.984;2023-05-09T11:10:08;4.20;;;1.40;;
54923;SDS011;40825;52.270;20.984;2023-05-09T11:15:23;3.50;;;1.50;;
54923;SDS011;40825;52.270;20.984;2023-05-09T11:18:22;2.80;;;1.10;;
54923;SDS011;40825;52.270;20.984;2023-05-09T11:20:42;3.90;;;1.10;;
54923;SDS011;40825;52.270;20.984;2023-05-09T11:23:09;3.00;;;1.20;;
54923;SDS011;40825;52.270;20.984;2023-05-09T11:25:37;4.70;;;1.50;;
54923;SDS011;40825;52.270;20.984;2023-05-09T11:28:04;3.70;;;1.20;;
54923;SDS011;40825;52.270;20.984;2023-05-09T11:30:48;3.40;;;1.10;;
54923;SDS011;40825;52.270;20.984;2023-05-09T11:33:22;3.20;;;1.20;;
54923;SDS011;40825;52.270;20.984;2023-05-09T11:38:40;3.90;;;1.10;;
54923;SDS011;40825;52.270;20.984;2023-05-09T11:41:07;4.10;;;1.60;;
54923;SDS011;40825;52.270;20.984;2023-05-09T11:43:32;2.60;;;1.10;;
54923;SDS011;40825;52.270;20.984;2023-05-09T11:45:59;3.30;;;1.30;;
54923;SDS011;40825;52.270;20.984;2023-05-09T11:48:24;4.10;;;1.20;;
54923;SDS011;40825;52.270;20.984;2023-05-09T11:50:50;3.30;;;1.10;;
54923;SDS011;40825;52.270;20.984;2023-05-09T11:53:15;4.80;;;1.50;;
54923;SDS011;40825;52.270;20.984;2023-05-09T11:55:41;4.90;;;1.20;;
54923;SDS011;40825;52.270;20.984;2023-05-09T11:58:07;5.80;;;1.00;;
54923;SDS011;40825;52.270;20.984;2023-05-09T12:00:33;3.70;;;1.60;;
54923;SDS011;40825;52.270;20.984;2023-05-09T12:03:03;4.10;;;1.40;;
54923;SDS011;40825;52.270;20.984;2023-05-09T12:05:29;3.70;;;1.30;;
54923;SDS011;40825;52.270;20.984;2023-05-09T12:07:56;2.00;;;1.00;;
54923;SDS011;40825;52.270;20.984;2023-05-09T12:10:27;4.90;;;1.30;;
54923;SDS011;40825;52.270;20.984;2023-05-09T12:12:53;4.00;;;1.10;;
54923;SDS011;40825;52.270;20.984;2023-05-09T12:15:20;3.20;;;1.30;;
54923;SDS011;40825;52.270;20.984;2023-05-09T12:17:46;4.40;;;1.20;;
54923;SDS011;40825;52.270;20.984;2023-05-09T12:20:12;4.80;;;1.30;;
54923;SDS011;40825;52.270;20.984;2023-05-09T12:22:42;4.70;;;1.30;;
54923;SDS011;40825;52.270;20.984;2023-05-09T12:25:08;3.40;;;1.50;;
54923;SDS011;40825;52.270;20.984;2023-05-09T12:27:36;4.20;;;1.50;;
54923;SDS011;40825;52.270;20.984;2023-05-09T12:30:06;3.00;;;1.00;;
54923;SDS011;40825;52.270;20.984;2023-05-09T12:32:35;3.40;;;1.00;;
54923;SDS011;40825;52.270;20.984;2023-05-09T12:35:03;3.90;;;1.20;;
54923;SDS011;40825;52.270;20.984;2023-05-09T12:37:30;3.50;;;1.00;;
54923;SDS011;40825;52.270;20.984;2023-05-09T12:42:27;4.80;;;1.70;;
54923;SDS011;40825;52.270;20.984;2023-05-09T12:44:54;4.40;;;1.50;;
54923;SDS011;40825;52.270;20.984;2023-05-09T12:47:20;4.20;;;1.30;;
54923;SDS011;40825;52.270;20.984;2023-05-09T12:49:49;6.60;;;1.20;;
54923;SDS011;40825;52.270;20.984;2023-05-09T12:52:16;4.70;;;1.20;;
54923;SDS011;40825;52.270;20.984;2023-05-09T12:54:47;6.60;;;1.40;;
54923;SDS011;40825;52.270;20.984;2023-05-09T12:57:22;5.10;;;1.30;;
54923;SDS011;40825;52.270;20.984;2023-05-09T12:59:56;3.20;;;1.30;;
54923;SDS011;40825;52.270;20.984;2023-05-09T13:02:24;3.90;;;1.20;;
54923;SDS011;40825;52.270;20.984;2023-05-09T13:05:03;4.80;;;1.30;;
54923;SDS011;40825;52.270;20.984;2023-05-09T13:07:40;2.80;;;1.10;;
54923;SDS011;40825;52.270;20.984;2023-05-09T13:10:14;6.60;;;1.50;;
54923;SDS011;40825;52.270;20.984;2023-05-09T13:12:42;3.70;;;1.30;;
54923;SDS011;40825;52.270;20.984;2023-05-09T13:15:12;4.60;;;1.40;;
54923;SDS011;40825;52.270;20.984;2023-05-09T13:17:38;3.70;;;1.60;;
54923;SDS011;40825;52.270;20.984;2023-05-09T13:20:04;7.20;;;1.20;;
54923;SDS011;40825;52.270;20.984;2023-05-09T13:22:31;3.80;;;1.20;;
54923;SDS011;40825;52.270;20.984;2023-05-09T13:24:56;7.70;;;1.50;;
54923;SDS011;40825;52.270;20.984;2023-05-09T13:27:22;4.60;;;1.60;;
54923;SDS011;40825;52.270;20.984;2023-05-09T13:29:47;3.90;;;1.30;;
54923;SDS011;40825;52.270;20.984;2023-05-09T13:32:13;3.10;;;1.10;;
54923;SDS011;40825;52.270;20.984;2023-05-09T13:34:38;2.80;;;1.10;;
54923;SDS011;40825;52.270;20.984;2023-05-09T13:37:05;4.60;;;1.40;;
54923;SDS011;40825;52.270;20.984;2023-05-09T13:39:30;2.60;;;1.10;;
54923;SDS011;40825;52.270;20.984;2023-05-09T13:41:58;3.70;;;1.30;;
54923;SDS011;40825;52.270;20.984;2023-05-09T13:44:23;4.40;;;1.30;;
54923;SDS011;40825;52.270;20.984;2023-05-09T13:46:49;3.60;;;1.30;;
54923;SDS011;40825;52.270;20.984;2023-05-09T13:49:14;3.30;;;1.40;;
54923;SDS011;40825;52.270;20.984;2023-05-09T13:51:40;3.90;;;1.20;;
54923;SDS011;40825;52.270;20.984;2023-05-09T13:54:05;5.20;;;1.30;;
54923;SDS011;40825;52.270;20.984;2023-05-09T13:56:39;3.20;;;1.20;;
54923;SDS011;40825;52.270;20.984;2023-05-09T13:59:05;4.60;;;1.20;;
54923;SDS011;40825;52.270;20.984;2023-05-09T14:01:31;2.80;;;1.20;;
54923;SDS011;40825;52.270;20.984;2023-05-09T14:03:56;3.80;;;1.30;;
54923;SDS011;40825;52.270;20.984;2023-05-09T14:06:22;4.60;;;1.20;;
54923;SDS011;40825;52.270;20.984;2023-05-09T14:08:47;3.30;;;1.10;;
54923;SDS011;40825;52.270;20.984;2023-05-09T14:11:13;4.00;;;1.40;;
54923;SDS011;40825;52.270;20.984;2023-05-09T14:13:38;3.10;;;1.50;;
54923;SDS011;40825;52.270;20.984;2023-05-09T14:16:04;4.40;;;1.30;;
54923;SDS011;40825;52.270;20.984;2023-05-09T14:18:30;6.60;;;1.70;;
54923;SDS011;40825;52.270;20.984;2023-05-09T14:20:55;3.30;;;1.40;;
54923;SDS011;40825;52.270;20.984;2023-05-09T14:23:21;2.10;;;1.00;;
54923;SDS011;40825;52.270;20.984;2023-05-09T14:25:46;4.10;;;1.00;;
54923;SDS011;40825;52.270;20.984;2023-05-09T14:28:12;3.10;;;1.10;;
54923;SDS011;40825;52.270;20.984;2023-05-09T14:30:38;4.60;;;1.00;;
54923;SDS011;40825;52.270;20.984;2023-05-09T14:33:04;3.70;;;1.20;;
54923;SDS011;40825;52.270;20.984;2023-05-09T14:35:32;3.30;;;1.20;;
54923;SDS011;40825;52.270;20.984;2023-05-09T14:37:58;5.10;;;1.30;;
54923;SDS011;40825;52.270;20.984;2023-05-09T14:40:25;4.30;;;1.30;;
54923;SDS011;40825;52.270;20.984;2023-05-09T14:42:59;4.30;;;1.10;;
54923;SDS011;40825;52.270;20.984;2023-05-09T14:45:29;4.10;;;1.40;;
54923;SDS011;40825;52.270;20.984;2023-05-09T14:47:57;2.90;;;1.40;;
54923;SDS011;40825;52.270;20.984;2023-05-09T14:50:29;6.80;;;1.10;;
54923;SDS011;40825;52.270;20.984;2023-05-09T14:52:55;2.60;;;0.90;;